createdAt,value
2023-03-27T00:02:25.182Z,5.28
2023-03-27T00:04:51.622Z,6.75
2023-03-27T00:07:17.954Z,7.82
2023-03-27T00:09:45.629Z,5.70
2023-03-27T00:12:11.975Z,11.30
2023-03-27T00:14:38.341Z,6.68
2023-03-27T00:17:04.853Z,7.25
2023-03-27T00:19:31.226Z,6.35
2023-03-27T00:21:57.575Z,3.38
2023-03-27T00:24:24.015Z,9.88
2023-03-27T00:26:51.677Z,7.75
2023-03-27T00:29:18.031Z,5.80
2023-03-27T00:31:44.406Z,9.68
2023-03-27T00:34:10.812Z,6.53
2023-03-27T00:36:37.159Z,11.10
2023-03-27T00:39:03.898Z,7.18
2023-03-27T00:41:30.320Z,5.45
2023-03-27T00:43:58.100Z,9.82
2023-03-27T00:46:31.036Z,6.70
2023-03-27T00:49:01.472Z,4.93
2023-03-27T00:51:28.347Z,4.47
2023-03-27T00:53:55.955Z,11.02
2023-03-27T00:56:22.920Z,9.45
2023-03-27T00:58:52.612Z,8.73
2023-03-27T01:01:23.180Z,8.98
2023-03-27T01:03:50.307Z,4.93
2023-03-27T01:06:17.254Z,5.85
2023-03-27T01:08:45.166Z,3.50
2023-03-27T01:11:21.239Z,7.15
2023-03-27T01:14:01.184Z,6.88
2023-03-27T01:16:36.025Z,7.85
2023-03-27T01:19:29.319Z,7.95
2023-03-27T01:22:19.988Z,10.10
2023-03-27T01:25:19.125Z,11.75
2023-03-27T01:28:16.370Z,7.72
2023-03-27T01:30:50.332Z,7.82
2023-03-27T01:34:09.179Z,7.95
2023-03-27T01:36:56.144Z,8.60
2023-03-27T01:39:31.614Z,8.98
2023-03-27T01:42:08.739Z,5.82
2023-03-27T01:44:46.419Z,10.00
2023-03-27T01:47:21.567Z,7.10
2023-03-27T01:49:53.933Z,6.68
2023-03-27T01:52:25.090Z,10.40
2023-03-27T01:54:55.616Z,7.82
2023-03-27T01:57:25.598Z,8.88
2023-03-27T01:59:58.062Z,7.95
2023-03-27T02:02:48.907Z,9.30
2023-03-27T02:05:20.849Z,8.20
2023-03-27T02:07:52.538Z,11.48
2023-03-27T02:10:25.117Z,9.85
2023-03-27T02:12:58.399Z,8.20
2023-03-27T02:15:30.422Z,5.35
2023-03-27T02:18:00.355Z,8.20
2023-03-27T02:20:26.777Z,8.65
2023-03-27T02:22:53.150Z,5.65
2023-03-27T02:25:27.199Z,8.38
2023-03-27T02:28:08.113Z,10.25
2023-03-27T02:30:40.014Z,9.68
2023-03-27T02:33:12.370Z,6.50
2023-03-27T02:35:48.336Z,8.80
2023-03-27T02:38:18.906Z,9.30
2023-03-27T02:40:55.965Z,7.85
2023-03-27T02:43:31.047Z,7.95
2023-03-27T02:46:02.249Z,8.93
2023-03-27T02:48:32.691Z,7.13
2023-03-27T02:51:02.745Z,7.60
2023-03-27T02:53:35.018Z,5.93
2023-03-27T02:56:04.697Z,15.05
2023-03-27T02:58:37.189Z,7.53
2023-03-27T03:01:05.667Z,7.85
2023-03-27T03:03:38.048Z,7.32
2023-03-27T03:06:05.512Z,9.10
2023-03-27T03:08:31.911Z,5.05
2023-03-27T03:11:04.000Z,13.07
2023-03-27T03:13:30.700Z,9.27
2023-03-27T03:15:57.272Z,5.38
2023-03-27T03:18:23.914Z,10.80
2023-03-27T03:20:50.402Z,8.50
2023-03-27T03:23:16.744Z,7.13
2023-03-27T03:25:43.092Z,7.80
2023-03-27T03:28:10.779Z,7.07
2023-03-27T03:30:37.176Z,5.20
2023-03-27T03:33:03.695Z,7.05
2023-03-27T03:35:30.128Z,7.45
2023-03-27T03:37:56.539Z,9.23
2023-03-27T03:40:22.886Z,7.10
2023-03-27T03:42:50.742Z,7.25
2023-03-27T03:45:19.910Z,7.45
2023-03-27T03:47:46.830Z,8.65
2023-03-27T03:50:13.760Z,4.15
2023-03-27T03:52:40.489Z,10.30
2023-03-27T03:55:09.220Z,8.52
2023-03-27T03:57:35.691Z,10.18
2023-03-27T04:00:02.488Z,9.07
2023-03-27T04:02:30.345Z,6.10
2023-03-27T04:04:57.633Z,7.63
2023-03-27T04:07:24.873Z,10.25
2023-03-27T04:09:51.402Z,6.35
2023-03-27T04:12:18.206Z,11.50
2023-03-27T04:14:44.914Z,5.43
2023-03-27T04:17:11.321Z,8.18
2023-03-27T04:19:39.038Z,7.65
2023-03-27T04:22:05.395Z,8.10
2023-03-27T04:24:31.741Z,8.32
2023-03-27T04:26:58.811Z,6.53
2023-03-27T04:29:25.403Z,10.90
2023-03-27T04:31:51.786Z,9.40
2023-03-27T04:34:18.224Z,11.40
2023-03-27T04:36:45.961Z,8.02
2023-03-27T04:39:12.850Z,7.55
2023-03-27T04:41:39.218Z,9.57
2023-03-27T04:44:05.560Z,12.05
2023-03-27T04:46:31.963Z,9.90
2023-03-27T04:48:58.446Z,10.43
2023-03-27T04:51:24.815Z,12.88
2023-03-27T04:53:52.901Z,6.97
2023-03-27T04:56:19.434Z,9.13
2023-03-27T04:58:45.817Z,10.70
2023-03-27T05:01:12.358Z,13.93
2023-03-27T05:03:38.945Z,8.57
2023-03-27T05:06:06.222Z,4.53
2023-03-27T05:08:32.778Z,6.30
2023-03-27T05:11:00.608Z,7.70
2023-03-27T05:13:26.978Z,6.50
2023-03-27T05:15:53.345Z,11.68
2023-03-27T05:18:19.711Z,6.90
2023-03-27T05:20:46.049Z,5.95
2023-03-27T05:23:12.414Z,7.55
2023-03-27T05:25:38.776Z,7.35
2023-03-27T05:28:06.454Z,10.23
2023-03-27T05:30:32.899Z,6.88
2023-03-27T05:32:59.646Z,13.32
2023-03-27T05:35:26.796Z,11.13
2023-03-27T05:37:54.673Z,7.15
2023-03-27T05:40:23.668Z,5.50
2023-03-27T05:42:50.951Z,9.57
2023-03-27T05:45:19.746Z,6.80
2023-03-27T05:47:47.747Z,6.60
2023-03-27T05:50:14.642Z,7.45
2023-03-27T05:52:41.116Z,9.90
2023-03-27T05:55:08.624Z,6.97
2023-03-27T05:57:37.329Z,5.57
2023-03-27T06:00:04.731Z,8.07
2023-03-27T06:02:32.621Z,4.65
2023-03-27T06:04:59.197Z,7.63
2023-03-27T06:07:25.634Z,7.15
2023-03-27T06:09:52.010Z,12.80
2023-03-27T06:12:18.370Z,8.50
2023-03-27T06:14:44.754Z,6.13
2023-03-27T06:17:11.142Z,13.07
2023-03-27T06:19:38.945Z,6.72
2023-03-27T06:22:05.284Z,7.85
2023-03-27T06:24:31.666Z,12.35
2023-03-27T06:26:58.008Z,6.28
2023-03-27T06:29:24.355Z,7.38
2023-03-27T06:31:50.760Z,11.57
2023-03-27T06:34:17.102Z,3.78
2023-03-27T06:36:44.780Z,8.38
2023-03-27T06:39:11.466Z,6.22
2023-03-27T06:41:37.896Z,3.88
2023-03-27T06:44:04.920Z,7.63
2023-03-27T06:46:42.806Z,8.60
2023-03-27T06:49:11.689Z,7.72
2023-03-27T06:51:38.091Z,7.15
2023-03-27T06:54:06.040Z,8.35
2023-03-27T06:56:32.499Z,5.47
2023-03-27T06:58:59.040Z,8.55
2023-03-27T07:01:25.424Z,6.88
2023-03-27T07:03:51.797Z,6.70
2023-03-27T07:06:18.703Z,6.80
2023-03-27T07:08:47.689Z,5.80
2023-03-27T07:11:16.863Z,9.52
2023-03-27T07:13:43.564Z,8.02
2023-03-27T07:16:10.813Z,9.48
2023-03-27T07:18:37.337Z,7.95
2023-03-27T07:21:04.003Z,6.72
2023-03-27T07:23:30.447Z,5.93
2023-03-27T07:25:57.954Z,6.20
2023-03-27T07:28:25.810Z,8.07
2023-03-27T07:30:52.242Z,5.80
2023-03-27T07:33:19.187Z,9.75
2023-03-27T07:35:47.627Z,7.82
2023-03-27T07:38:14.963Z,7.25
2023-03-27T07:40:43.101Z,9.45
2023-03-27T07:43:09.510Z,7.05
2023-03-27T07:45:37.681Z,6.78
2023-03-27T07:48:05.044Z,7.30
2023-03-27T07:50:31.412Z,6.43
2023-03-27T07:52:57.854Z,15.07
2023-03-27T07:55:24.246Z,9.63
2023-03-27T07:58:00.724Z,12.07
2023-03-27T08:00:28.538Z,11.43
2023-03-27T08:03:04.872Z,6.68
2023-03-27T08:05:31.329Z,5.95
2023-03-27T08:07:57.701Z,4.90
2023-03-27T08:10:24.233Z,4.85
2023-03-27T08:12:50.559Z,9.95
2023-03-27T08:15:17.224Z,9.13
2023-03-27T08:17:43.711Z,8.85
2023-03-27T08:20:11.630Z,9.27
2023-03-27T08:22:38.068Z,12.52
2023-03-27T08:25:05.954Z,5.28
2023-03-27T08:27:32.327Z,6.22
2023-03-27T08:29:58.886Z,10.32
2023-03-27T08:32:25.808Z,8.77
2023-03-27T08:34:52.198Z,10.10
2023-03-27T08:37:20.120Z,7.63
2023-03-27T08:39:46.562Z,10.95
2023-03-27T08:42:17.806Z,8.48
2023-03-27T08:44:46.251Z,7.50
2023-03-27T08:47:16.818Z,5.93
2023-03-27T08:49:49.319Z,4.55
2023-03-27T08:52:20.851Z,7.32
2023-03-27T08:54:52.374Z,7.63
2023-03-27T08:57:20.969Z,10.40
2023-03-27T08:59:47.585Z,8.32
2023-03-27T09:02:23.461Z,9.63
2023-03-27T09:04:57.806Z,13.55
2023-03-27T09:07:31.871Z,4.78
2023-03-27T09:10:06.677Z,10.13
2023-03-27T09:12:43.043Z,6.70
2023-03-27T09:15:12.400Z,7.57
2023-03-27T09:17:44.000Z,6.00
2023-03-27T09:20:16.687Z,11.50
2023-03-27T09:22:45.023Z,5.57
2023-03-27T09:25:19.782Z,10.18
2023-03-27T09:27:48.468Z,5.25
2023-03-27T09:30:20.921Z,7.15
2023-03-27T09:32:49.131Z,4.97
2023-03-27T09:35:17.364Z,3.40
2023-03-27T09:37:44.147Z,8.68
2023-03-27T09:40:21.714Z,6.30
2023-03-27T09:42:49.433Z,3.47
2023-03-27T09:45:16.723Z,5.68
2023-03-27T09:47:50.979Z,5.13
2023-03-27T09:50:26.271Z,6.78
2023-03-27T09:53:07.175Z,6.32
2023-03-27T09:55:43.975Z,5.43
2023-03-27T09:58:14.357Z,5.97
2023-03-27T10:00:40.844Z,4.07
2023-03-27T10:03:14.364Z,5.18
2023-03-27T10:05:43.982Z,4.47
2023-03-27T10:08:35.524Z,5.93
2023-03-27T10:11:06.505Z,7.93
2023-03-27T10:13:32.891Z,5.80
2023-03-27T10:16:01.190Z,7.10
2023-03-27T10:18:30.097Z,5.07
2023-03-27T10:20:59.098Z,6.05
2023-03-27T10:23:27.563Z,5.63
2023-03-27T10:25:59.800Z,6.50
2023-03-27T10:28:29.613Z,2.78
2023-03-27T10:31:00.723Z,6.18
2023-03-27T10:33:31.954Z,4.57
2023-03-27T10:35:59.680Z,7.32
2023-03-27T10:38:26.642Z,5.72
2023-03-27T10:40:55.221Z,3.25
2023-03-27T10:43:31.852Z,3.08
2023-03-27T10:46:00.489Z,5.38
2023-03-27T10:48:42.219Z,2.95
2023-03-27T10:51:33.102Z,4.57
2023-03-27T10:54:15.308Z,2.97
2023-03-27T10:56:52.275Z,3.08
2023-03-27T10:59:34.517Z,1.27
2023-03-27T11:02:15.117Z,5.15
2023-03-27T11:04:46.395Z,2.13
2023-03-27T11:07:19.339Z,2.08
2023-03-27T11:09:56.633Z,3.73
2023-03-27T11:12:25.036Z,1.67
2023-03-27T11:14:58.978Z,3.53
2023-03-27T11:17:30.094Z,2.13
2023-03-27T11:19:59.853Z,1.33
2023-03-27T11:22:31.195Z,2.17
2023-03-27T11:25:03.414Z,3.10
2023-03-27T11:27:36.168Z,6.38
2023-03-27T11:30:24.327Z,3.45
2023-03-27T11:33:07.420Z,4.75
2023-03-27T11:35:38.510Z,3.33
2023-03-27T11:38:11.880Z,2.55
2023-03-27T11:40:41.330Z,2.45
2023-03-27T11:43:10.056Z,4.00
2023-03-27T11:45:44.750Z,2.45
2023-03-27T11:48:33.270Z,4.13
2023-03-27T11:51:03.696Z,2.55
2023-03-27T11:53:46.811Z,3.00
2023-03-27T11:56:21.787Z,6.10
2023-03-27T11:59:03.763Z,2.83
2023-03-27T12:01:37.663Z,1.88
2023-03-27T12:04:25.284Z,2.80
2023-03-27T12:07:04.618Z,1.13
2023-03-27T12:09:47.070Z,2.08
2023-03-27T12:12:31.722Z,3.17
2023-03-27T12:15:12.743Z,2.95
2023-03-27T12:17:52.053Z,2.40
2023-03-27T12:20:38.345Z,2.97
2023-03-27T12:23:22.238Z,3.03
2023-03-27T12:26:04.896Z,1.45
2023-03-27T12:28:48.411Z,2.50
2023-03-27T12:31:35.697Z,4.30
2023-03-27T12:34:11.179Z,4.03
2023-03-27T12:36:42.553Z,2.72
2023-03-27T12:39:17.865Z,2.97
2023-03-27T12:41:45.049Z,4.13
2023-03-27T12:44:13.426Z,2.90
2023-03-27T12:46:41.601Z,5.10
2023-03-27T12:49:48.533Z,1.60
2023-03-27T12:52:16.356Z,3.70
2023-03-27T12:55:05.840Z,1.63
2023-03-27T12:57:42.122Z,0.90
2023-03-27T13:00:20.463Z,1.83
2023-03-27T13:03:10.530Z,4.70
2023-03-27T13:06:15.461Z,3.78
2023-03-27T13:09:02.729Z,2.47
2023-03-27T13:11:42.933Z,1.75
2023-03-27T13:14:30.150Z,4.82
2023-03-27T13:17:14.743Z,2.65
2023-03-27T13:19:52.291Z,2.95
2023-03-27T13:22:38.482Z,1.40
2023-03-27T13:25:20.078Z,2.03
2023-03-27T13:28:09.428Z,1.58
2023-03-27T13:30:46.580Z,2.90
2023-03-27T13:33:23.338Z,2.08
2023-03-27T13:35:58.722Z,1.75
2023-03-27T13:39:00.665Z,2.13
2023-03-27T13:41:55.074Z,2.60
2023-03-27T13:46:57.689Z,1.40
2023-03-27T13:49:44.379Z,2.58
2023-03-27T13:52:27.274Z,4.03
2023-03-27T13:55:25.421Z,2.75
2023-03-27T13:58:03.836Z,2.33
2023-03-27T14:00:49.903Z,3.40
2023-03-27T14:03:54.604Z,2.25
2023-03-27T14:06:45.365Z,2.25
2023-03-27T14:09:22.802Z,3.17
2023-03-27T14:12:07.145Z,1.67
2023-03-27T14:14:52.599Z,3.65
2023-03-27T14:17:43.857Z,2.17
2023-03-27T14:20:18.496Z,1.15
2023-03-27T14:22:50.398Z,1.20
2023-03-27T14:25:18.980Z,1.40
2023-03-27T14:27:49.479Z,2.47
2023-03-27T14:30:18.755Z,2.53
2023-03-27T14:32:46.718Z,3.28
2023-03-27T14:35:32.017Z,2.10
2023-03-27T14:37:59.998Z,2.85
2023-03-27T14:40:29.966Z,2.83
2023-03-27T14:42:59.038Z,4.63
2023-03-27T14:45:27.087Z,2.15
2023-03-27T14:47:58.247Z,2.60
2023-03-27T14:50:26.861Z,1.40
2023-03-27T14:52:54.291Z,3.05
2023-03-27T14:55:23.933Z,1.90
2023-03-27T14:57:52.274Z,3.00
2023-03-27T15:00:23.028Z,2.88
2023-03-27T15:02:51.385Z,2.20
2023-03-27T15:05:21.397Z,2.35
2023-03-27T15:07:48.432Z,3.80
2023-03-27T15:10:22.102Z,4.88
2023-03-27T15:12:48.508Z,2.88
2023-03-27T15:15:30.276Z,6.43
2023-03-27T15:17:56.855Z,3.85
2023-03-27T15:20:28.006Z,3.97
2023-03-27T15:22:59.338Z,2.40
2023-03-27T15:25:34.440Z,3.85
2023-03-27T15:28:06.705Z,4.40
2023-03-27T15:30:36.531Z,2.87
2023-03-27T15:33:05.316Z,4.25
2023-03-27T15:35:35.943Z,2.05
2023-03-27T15:38:03.948Z,2.58
2023-03-27T15:40:32.865Z,2.28
2023-03-27T15:43:04.226Z,3.78
2023-03-27T15:45:38.882Z,4.47
2023-03-27T15:48:17.362Z,4.30
2023-03-27T15:50:55.975Z,4.82
2023-03-27T15:53:34.011Z,1.95
2023-03-27T15:56:03.154Z,3.25
2023-03-27T15:58:39.620Z,1.63
2023-03-27T16:01:18.262Z,4.43
2023-03-27T16:03:46.698Z,2.65
2023-03-27T16:06:24.947Z,3.10
2023-03-27T16:08:51.424Z,4.63
2023-03-27T16:11:33.445Z,2.42
2023-03-27T16:14:00.181Z,2.60
2023-03-27T16:16:28.770Z,4.00
2023-03-27T16:18:58.708Z,3.20
2023-03-27T16:21:27.651Z,3.85
2023-03-27T16:23:54.493Z,2.92
2023-03-27T16:26:24.910Z,2.25
2023-03-27T16:28:51.413Z,4.57
2023-03-27T16:31:19.428Z,6.13
2023-03-27T16:33:46.415Z,5.15
2023-03-27T16:36:14.830Z,6.85
2023-03-27T16:38:42.851Z,2.42
2023-03-27T16:41:12.693Z,5.63
2023-03-27T16:43:39.078Z,3.90
2023-03-27T16:46:05.951Z,3.40
2023-03-27T16:48:32.623Z,3.95
2023-03-27T16:50:59.004Z,6.30
2023-03-27T16:53:25.428Z,5.88
2023-03-27T16:55:53.291Z,4.57
2023-03-27T16:58:19.669Z,4.07
2023-03-27T17:00:46.317Z,2.20
2023-03-27T17:03:12.870Z,2.92
2023-03-27T17:05:39.588Z,7.72
2023-03-27T17:08:07.399Z,3.90
2023-03-27T17:10:34.379Z,5.55
2023-03-27T17:13:02.326Z,6.78
2023-03-27T17:15:28.782Z,4.35
2023-03-27T17:17:55.209Z,5.05
2023-03-27T17:20:21.569Z,4.40
2023-03-27T17:22:47.973Z,3.28
2023-03-27T17:25:14.413Z,2.92
2023-03-27T17:27:40.814Z,6.45
2023-03-27T17:30:09.713Z,3.22
2023-03-27T17:32:36.269Z,7.20
2023-03-27T17:35:02.744Z,5.57
2023-03-27T17:37:29.102Z,5.15
2023-03-27T17:39:55.649Z,4.72
2023-03-27T17:42:22.581Z,4.60
2023-03-27T17:44:48.950Z,4.05
2023-03-27T17:47:16.704Z,4.32
2023-03-27T17:49:43.175Z,5.07
2023-03-27T17:52:09.626Z,9.18
2023-03-27T17:54:36.164Z,6.55
2023-03-27T17:57:02.935Z,8.07
2023-03-27T17:59:29.952Z,5.93
2023-03-27T18:01:56.427Z,7.38
2023-03-27T18:04:24.509Z,6.57
2023-03-27T18:06:51.415Z,10.30
2023-03-27T18:09:17.782Z,8.85
2023-03-27T18:11:44.139Z,5.18
2023-03-27T18:14:10.517Z,4.05
2023-03-27T18:16:36.933Z,3.22
2023-03-27T18:19:03.912Z,6.07
2023-03-27T18:21:31.598Z,3.22
2023-03-27T18:23:58.015Z,4.88
2023-03-27T18:26:24.741Z,4.20
2023-03-27T18:28:51.274Z,5.47
2023-03-27T18:31:18.220Z,3.00
2023-03-27T18:33:44.799Z,6.25
2023-03-27T18:36:11.408Z,4.50
2023-03-27T18:38:40.541Z,4.55
2023-03-27T18:41:07.175Z,8.15
2023-03-27T18:43:33.579Z,4.82
2023-03-27T18:46:02.304Z,9.73
2023-03-27T18:48:29.355Z,5.95
2023-03-27T18:50:56.837Z,4.22
2023-03-27T18:53:23.780Z,6.82
2023-03-27T18:55:52.532Z,6.35
2023-03-27T18:58:20.136Z,3.42
2023-03-27T19:00:46.724Z,3.65
2023-03-27T19:03:14.711Z,4.80
2023-03-27T19:05:41.152Z,4.28
2023-03-27T19:08:07.575Z,4.90
2023-03-27T19:10:34.409Z,4.30
2023-03-27T19:13:02.189Z,5.53
2023-03-27T19:15:28.921Z,5.28
2023-03-27T19:17:55.538Z,4.90
2023-03-27T19:20:22.426Z,6.22
2023-03-27T19:22:48.921Z,5.28
2023-03-27T19:25:15.641Z,6.43
2023-03-27T19:27:42.214Z,9.30
2023-03-27T19:30:13.615Z,6.57
2023-03-27T19:32:40.446Z,5.45
2023-03-27T19:35:07.419Z,6.90
2023-03-27T19:37:33.825Z,6.10
2023-03-27T19:40:00.286Z,4.93
2023-03-27T19:42:27.070Z,3.22
2023-03-27T19:44:53.573Z,4.00
2023-03-27T19:47:21.748Z,4.40
2023-03-27T19:49:48.525Z,3.40
2023-03-27T19:52:14.906Z,7.93
2023-03-27T19:54:41.238Z,2.92
2023-03-27T19:57:07.664Z,4.45
2023-03-27T19:59:34.485Z,4.28
2023-03-27T20:02:00.884Z,9.93
2023-03-27T20:04:28.591Z,6.00
2023-03-27T20:06:55.003Z,5.65
2023-03-27T20:09:21.356Z,5.40
2023-03-27T20:11:47.844Z,9.73
2023-03-27T20:14:14.196Z,12.43
2023-03-27T20:16:40.641Z,7.45
2023-03-27T20:19:07.786Z,5.28
2023-03-27T20:21:37.847Z,5.40
2023-03-27T20:24:05.145Z,5.07
2023-03-27T20:26:31.884Z,3.97
2023-03-27T20:28:58.249Z,8.25
2023-03-27T20:31:24.650Z,7.53
2023-03-27T20:33:51.067Z,5.72
2023-03-27T20:36:17.449Z,4.35
2023-03-27T20:38:45.188Z,6.40
2023-03-27T20:41:11.616Z,6.40
2023-03-27T20:43:37.991Z,5.53
2023-03-27T20:46:04.734Z,5.13
2023-03-27T20:48:31.398Z,5.78
2023-03-27T20:50:58.134Z,9.80
2023-03-27T20:53:26.018Z,8.27
2023-03-27T20:56:00.112Z,6.95
2023-03-27T20:58:27.400Z,8.27
2023-03-27T21:00:54.707Z,7.18
2023-03-27T21:03:21.975Z,7.45
2023-03-27T21:05:48.736Z,6.05
2023-03-27T21:08:15.488Z,6.07
2023-03-27T21:10:42.229Z,4.03
2023-03-27T21:13:09.902Z,7.63
2023-03-27T21:15:36.274Z,7.75
2023-03-27T21:18:02.823Z,6.70
2023-03-27T21:20:29.349Z,6.88
2023-03-27T21:22:55.751Z,6.10
2023-03-27T21:25:22.318Z,8.02
2023-03-27T21:27:48.941Z,10.68
2023-03-27T21:30:16.762Z,8.70
2023-03-27T21:32:43.209Z,3.50
2023-03-27T21:35:10.070Z,4.78
2023-03-27T21:37:36.442Z,7.93
2023-03-27T21:40:03.079Z,7.97
2023-03-27T21:42:29.803Z,8.85
2023-03-27T21:44:57.319Z,8.93
2023-03-27T21:47:34.394Z,8.82
2023-03-27T21:50:08.494Z,10.73
2023-03-27T21:52:34.882Z,6.45
2023-03-27T21:55:03.190Z,5.93
2023-03-27T21:57:30.093Z,7.15
2023-03-27T21:59:56.625Z,7.55
2023-03-27T22:02:23.049Z,8.27
2023-03-27T22:04:50.796Z,6.20
2023-03-27T22:07:17.482Z,9.00
2023-03-27T22:09:44.541Z,10.45
2023-03-27T22:12:11.125Z,10.35
2023-03-27T22:14:37.594Z,8.20
2023-03-27T22:17:04.645Z,11.18
2023-03-27T22:19:31.189Z,6.57
2023-03-27T22:21:58.959Z,9.50
2023-03-27T22:24:25.314Z,11.55
2023-03-27T22:26:51.692Z,12.07
2023-03-27T22:29:18.135Z,9.55
2023-03-27T22:31:44.677Z,8.02
2023-03-27T22:34:11.101Z,9.15
2023-03-27T22:36:37.520Z,11.18
2023-03-27T22:39:05.522Z,9.52
2023-03-27T22:41:31.874Z,7.38
2023-03-27T22:43:59.761Z,11.18
2023-03-27T22:46:26.166Z,12.63
2023-03-27T22:48:55.728Z,11.00
2023-03-27T22:51:22.804Z,7.90
2023-03-27T22:53:49.267Z,8.52
2023-03-27T22:56:17.136Z,7.68
2023-03-27T22:58:43.670Z,10.93
2023-03-27T23:01:10.404Z,7.32
2023-03-27T23:03:36.992Z,13.40
2023-03-27T23:06:04.041Z,9.50
2023-03-27T23:08:31.905Z,10.70
2023-03-27T23:10:59.932Z,14.65
2023-03-27T23:13:29.865Z,11.05
2023-03-27T23:15:56.301Z,10.93
2023-03-27T23:18:23.332Z,12.23
2023-03-27T23:20:53.500Z,12.52
2023-03-27T23:23:19.869Z,11.85
2023-03-27T23:25:46.220Z,8.90
2023-03-27T23:28:12.805Z,13.65
2023-03-27T23:30:40.516Z,13.00
2023-03-27T23:33:06.928Z,14.32
2023-03-27T23:35:33.343Z,15.07
2023-03-27T23:37:59.775Z,9.82
2023-03-27T23:40:26.221Z,9.70
2023-03-27T23:42:52.673Z,8.57
2023-03-27T23:45:19.639Z,13.60
2023-03-27T23:47:47.371Z,8.75
2023-03-27T23:50:13.768Z,12.02
2023-03-27T23:52:40.144Z,11.63
2023-03-27T23:55:07.171Z,12.07
2023-03-27T23:57:33.530Z,12.73
2023-03-27T23:59:59.872Z,10.00
